Time;durP1;ratioP1;P1;durP2;ratioP2;P2;SDS_P1;SDS_P2;PMS_P1;PMS_P2;Temp;Humidity;BMP_temperature;BMP_pressure;BME280_temperature;BME280_humidity;BME280_pressure;Samples;Min_cycle;Max_cycle;Signal;HPM_P1;HPM_P2
2022/09/06 00:00:33;;;;;;;4.30;3.00;;;18.90;99.90;;;;;;4182397;28;20197;-90
2022/09/06 00:02:34;;;;;;;5.47;2.92;;;18.80;99.90;;;;;;4182599;28;20254;-95
2022/09/06 00:04:35;;;;;;;5.63;2.70;;;18.90;99.90;;;;;;4166170;28;20180;-87
2022/09/06 00:06:36;;;;;;;7.10;2.72;;;18.80;99.90;;;;;;4165477;28;20224;-87
2022/09/06 00:08:37;;;;;;;3.70;2.70;;;18.90;99.90;;;;;;4165476;28;20211;-87
2022/09/06 00:10:38;;;;;;;6.88;3.15;;;18.70;99.90;;;;;;4198487;28;20290;-88
2022/09/06 00:12:39;;;;;;;4.57;3.00;;;18.60;99.90;;;;;;4165591;28;20176;-89
2022/09/06 00:14:40;;;;;;;4.55;2.55;;;18.60;99.90;;;;;;4182111;28;20191;-88
2022/09/06 00:16:41;;;;;;;7.18;3.03;;;18.50;99.90;;;;;;4165483;28;20172;-88
2022/09/06 00:18:43;;;;;;;5.80;2.65;;;18.50;99.90;;;;;;4165392;28;20176;-91
2022/09/06 00:20:43;;;;;;;6.40;2.70;;;18.60;99.90;;;;;;4165349;28;20608;-87
2022/09/06 00:22:44;;;;;;;5.05;2.55;;;18.50;99.90;;;;;;4165244;28;20186;-87
2022/09/06 00:24:45;;;;;;;5.22;2.85;;;18.60;99.90;;;;;;4165404;28;20180;-87
2022/09/06 00:26:45;;;;;;;5.03;2.30;;;18.60;99.90;;;;;;4165275;28;20167;-94
2022/09/06 00:28:46;;;;;;;5.75;2.22;;;18.60;99.90;;;;;;4181746;28;20553;-87
2022/09/06 00:30:47;;;;;;;4.55;2.70;;;18.40;99.90;;;;;;4165325;28;20188;-89
2022/09/06 00:32:47;;;;;;;5.25;2.45;;;18.30;99.90;;;;;;4165256;28;20230;-88
2022/09/06 00:34:48;;;;;;;5.28;2.58;;;18.30;99.90;;;;;;4181648;28;20171;-88
2022/09/06 00:36:49;;;;;;;5.47;2.30;;;18.30;99.90;;;;;;4165188;28;20206;-87
2022/09/06 00:38:49;;;;;;;4.65;2.38;;;18.20;99.90;;;;;;4164505;28;20176;-87
2022/09/06 00:40:50;;;;;;;5.65;2.45;;;18.40;99.90;;;;;;4164878;28;20192;-88
2022/09/06 00:42:51;;;;;;;3.67;2.40;;;18.50;99.90;;;;;;4164898;28;20652;-87
2022/09/06 00:44:52;;;;;;;4.55;2.45;;;18.30;99.90;;;;;;4164995;28;20184;-87
2022/09/06 00:46:54;;;;;;;3.72;2.47;;;18.20;99.90;;;;;;4181463;28;20305;-96
2022/09/06 00:49:14;;;;;;;3.25;2.40;;;18.20;99.90;;;;;;4165338;28;20191;-87
2022/09/06 00:51:16;;;;;;;4.18;2.30;;;18.20;99.90;;;;;;4164707;28;20215;-87
2022/09/06 00:53:18;;;;;;;3.50;2.03;;;18.40;99.90;;;;;;4165276;28;20172;-95
2022/09/06 00:55:20;;;;;;;4.47;2.25;;;18.50;99.90;;;;;;4165206;28;20203;-87
2022/09/06 00:57:25;;;;;;;3.60;2.00;;;18.60;99.90;;;;;;4164760;28;20176;-88
2022/09/06 00:59:29;;;;;;;3.42;2.53;;;18.50;99.90;;;;;;4164995;28;20215;-88
2022/09/06 01:01:30;;;;;;;6.65;2.35;;;18.50;99.90;;;;;;4181577;28;20168;-92
2022/09/06 01:03:31;;;;;;;5.38;2.50;;;18.60;99.90;;;;;;4165026;28;20168;-88
2022/09/06 01:05:40;;;;;;;6.15;2.50;;;18.80;99.90;;;;;;4165171;28;20640;-87
2022/09/06 01:08:05;;;;;;;3.03;2.20;;;18.80;99.90;;;;;;4181390;28;20219;-87
2022/09/06 01:10:37;;;;;;;3.80;2.67;;;18.80;99.90;;;;;;4164693;28;20250;-91
2022/09/06 01:13:16;;;;;;;5.38;2.67;;;18.70;99.90;;;;;;4181317;28;20175;-87
2022/09/06 01:15:29;;;;;;;4.72;2.88;;;18.60;99.90;;;;;;4164230;28;20184;-88
2022/09/06 01:17:39;;;;;;;5.03;2.65;;;18.60;99.90;;;;;;4181441;28;20163;-87
2022/09/06 01:19:42;;;;;;;4.82;2.33;;;18.50;99.90;;;;;;4164667;28;20179;-87
2022/09/06 01:21:59;;;;;;;6.90;2.92;;;18.60;99.90;;;;;;4164990;28;20267;-96
2022/09/06 01:24:42;;;;;;;6.85;2.83;;;18.70;99.90;;;;;;4180904;28;20204;-87
2022/09/06 01:27:05;;;;;;;5.60;2.78;;;18.60;99.90;;;;;;4164741;28;20176;-87
2022/09/06 01:29:14;;;;;;;9.82;2.83;;;18.50;99.90;;;;;;4164763;28;20188;-87
2022/09/06 01:31:43;;;;;;;7.50;2.50;;;18.50;99.90;;;;;;4180992;28;20194;-87
2022/09/06 01:33:49;;;;;;;8.13;2.85;;;18.60;99.90;;;;;;4164622;28;20188;-95
2022/09/06 01:35:59;;;;;;;4.63;2.63;;;18.60;99.90;;;;;;4166196;28;20568;-87
2022/09/06 01:38:01;;;;;;;7.93;3.22;;;18.60;99.90;;;;;;4180949;28;20168;-88
2022/09/06 01:40:02;;;;;;;6.15;2.97;;;18.70;99.90;;;;;;4164344;28;20279;-87
2022/09/06 01:42:18;;;;;;;5.47;3.00;;;18.60;99.90;;;;;;4181097;28;20567;-88
2022/09/06 01:44:21;;;;;;;6.95;2.53;;;18.60;99.90;;;;;;4181045;28;20160;-96
2022/09/06 01:46:34;;;;;;;3.35;2.58;;;18.50;99.90;;;;;;4180969;28;20183;-88
2022/09/06 01:48:44;;;;;;;3.17;2.40;;;18.40;99.90;;;;;;4180900;28;20244;-88
2022/09/06 01:51:06;;;;;;;5.00;2.55;;;18.40;99.90;;;;;;4166502;28;20290;-87
2022/09/06 01:53:12;;;;;;;4.72;2.90;;;18.40;99.90;;;;;;4167710;28;20180;-87
2022/09/06 01:55:34;;;;;;;5.75;3.28;;;18.40;99.90;;;;;;4167647;28;20190;-87
2022/09/06 01:57:41;;;;;;;5.55;2.95;;;18.40;99.90;;;;;;4184060;28;20659;-87
2022/09/06 02:00:04;;;;;;;4.20;2.42;;;18.40;99.90;;;;;;4167565;28;20204;-88
2022/09/06 02:02:25;;;;;;;4.22;2.90;;;18.50;99.90;;;;;;4184307;28;20175;-88
2022/09/06 02:04:32;;;;;;;5.05;2.70;;;18.50;99.90;;;;;;4168592;28;20183;-89
2022/09/06 02:06:42;;;;;;;7.88;2.90;;;18.50;99.90;;;;;;4169032;28;20231;-87
2022/09/06 02:08:54;;;;;;;5.22;2.75;;;18.60;99.90;;;;;;4168415;28;20203;-87
2022/09/06 02:10:59;;;;;;;6.72;2.70;;;18.60;99.90;;;;;;4167823;28;20242;-87
2022/09/06 02:13:03;;;;;;;5.63;2.70;;;18.50;99.90;;;;;;4167743;28;20214;-87
2022/09/06 02:15:20;;;;;;;6.65;2.45;;;18.40;99.90;;;;;;4169067;28;20177;-88
2022/09/06 02:17:26;;;;;;;10.98;2.90;;;18.50;99.90;;;;;;4168100;28;20164;-88
2022/09/06 02:19:48;;;;;;;6.68;2.70;;;18.40;99.90;;;;;;4167390;28;20182;-92
2022/09/06 02:21:51;;;;;;;6.78;2.92;;;18.30;99.90;;;;;;4169246;28;20548;-95
2022/09/06 02:23:54;;;;;;;8.05;2.80;;;18.30;99.90;;;;;;4167882;28;20750;-91
2022/09/06 02:26:05;;;;;;;7.03;2.80;;;18.30;99.90;;;;;;4168033;28;20187;-88
2022/09/06 02:28:07;;;;;;;9.95;2.80;;;18.40;99.90;;;;;;4167221;28;20204;-87
2022/09/06 02:30:09;;;;;;;5.10;2.55;;;18.30;99.90;;;;;;4167977;28;20609;-88
2022/09/06 02:32:21;;;;;;;3.90;2.70;;;18.30;99.90;;;;;;4202256;28;20301;-87
2022/09/06 02:34:22;;;;;;;4.57;3.00;;;18.30;99.90;;;;;;4168085;28;20277;-87
2022/09/06 02:36:23;;;;;;;9.15;2.40;;;18.30;99.90;;;;;;4188361;28;20172;-87
2022/09/06 02:38:26;;;;;;;3.70;2.88;;;18.30;99.90;;;;;;4168436;28;20224;-87
2022/09/06 02:40:26;;;;;;;6.00;2.80;;;18.30;99.90;;;;;;4167603;28;20203;-87
2022/09/06 02:42:27;;;;;;;7.15;3.20;;;18.30;99.90;;;;;;4168949;28;20176;-96
2022/09/06 02:44:28;;;;;;;3.65;2.50;;;18.30;99.90;;;;;;4184224;28;20172;-87
2022/09/06 02:46:28;;;;;;;4.93;2.63;;;18.30;99.90;;;;;;4167107;28;20180;-90
2022/09/06 02:48:29;;;;;;;3.60;2.50;;;18.20;99.90;;;;;;4169094;28;20279;-93
2022/09/06 02:50:30;;;;;;;4.28;2.65;;;18.20;99.90;;;;;;4184362;28;20207;-88
2022/09/06 02:52:30;;;;;;;9.68;3.10;;;18.30;99.90;;;;;;4167358;28;20264;-87
2022/09/06 02:54:31;;;;;;;4.88;2.90;;;18.30;99.90;;;;;;4166878;28;20259;-87
2022/09/06 02:56:33;;;;;;;4.38;3.15;;;18.30;99.90;;;;;;4183367;28;20282;-94
2022/09/06 02:58:34;;;;;;;4.53;2.92;;;18.30;99.90;;;;;;4199916;28;20163;-88
2022/09/06 03:00:36;;;;;;;3.47;2.65;;;18.30;99.90;;;;;;4166745;28;20202;-88
2022/09/06 03:02:36;;;;;;;9.32;3.28;;;18.40;99.90;;;;;;4165771;28;20179;-88
2022/09/06 03:04:37;;;;;;;5.28;3.20;;;18.40;99.90;;;;;;4183057;28;20209;-87
2022/09/06 03:06:38;;;;;;;5.60;3.63;;;18.40;99.90;;;;;;4184738;28;20262;-96
2022/09/06 03:08:38;;;;;;;5.72;2.90;;;18.50;99.90;;;;;;4183896;28;20208;-96
2022/09/06 03:10:39;;;;;;;5.10;3.38;;;18.50;99.90;;;;;;4166936;28;20207;-91
2022/09/06 03:12:44;;;;;;;8.18;3.35;;;18.40;99.90;;;;;;4183335;28;20172;-87
2022/09/06 03:14:44;;;;;;;8.98;3.40;;;18.50;99.90;;;;;;4166468;28;20205;-90
2022/09/06 03:16:45;;;;;;;5.25;3.60;;;18.50;99.90;;;;;;4167590;28;20176;-87
2022/09/06 03:18:46;;;;;;;9.20;3.95;;;18.40;99.90;;;;;;4168129;28;20306;-86
2022/09/06 03:20:49;;;;;;;5.78;3.25;;;18.30;99.90;;;;;;4166749;28;20258;-88
2022/09/06 03:22:50;;;;;;;7.82;3.97;;;18.40;99.90;;;;;;4169240;28;20238;-90
2022/09/06 03:24:51;;;;;;;5.80;3.55;;;18.30;99.90;;;;;;4184406;28;20195;-87
2022/09/06 03:26:51;;;;;;;6.88;3.80;;;18.30;99.90;;;;;;4183548;28;20174;-87
2022/09/06 03:28:53;;;;;;;4.97;3.67;;;18.20;99.90;;;;;;4166806;28;20250;-87
2022/09/06 03:30:53;;;;;;;6.40;3.60;;;18.10;99.90;;;;;;4168838;28;20199;-88
2022/09/06 03:32:54;;;;;;;6.40;3.50;;;18.10;99.90;;;;;;4187685;28;20171;-92
2022/09/06 03:34:55;;;;;;;8.13;4.15;;;18.10;99.90;;;;;;4168212;28;20179;-87
2022/09/06 03:36:58;;;;;;;9.80;4.38;;;18.10;99.90;;;;;;4167475;28;20668;-88
2022/09/06 03:38:59;;;;;;;10.30;4.50;;;18.20;99.90;;;;;;4185174;28;20180;-87
2022/09/06 03:41:00;;;;;;;6.28;4.00;;;18.20;99.90;;;;;;4166867;28;20266;-96
2022/09/06 03:43:00;;;;;;;5.78;4.07;;;18.10;99.90;;;;;;4184552;28;20179;-87
2022/09/06 03:45:01;;;;;;;6.30;4.43;;;18.20;99.90;;;;;;4167246;28;20183;-87
2022/09/06 03:47:02;;;;;;;5.93;4.13;;;18.20;99.90;;;;;;4167904;28;20196;-95
2022/09/06 03:49:03;;;;;;;6.65;4.70;;;18.20;99.90;;;;;;4183224;28;20179;-94
2022/09/06 03:51:04;;;;;;;8.57;4.70;;;18.30;99.90;;;;;;4183584;28;20229;-87
2022/09/06 03:53:05;;;;;;;18.63;5.30;;;18.30;99.90;;;;;;4167139;28;20266;-87
2022/09/06 03:55:06;;;;;;;8.38;4.70;;;18.30;99.90;;;;;;4167180;28;20819;-87
2022/09/06 03:57:07;;;;;;;9.02;5.20;;;18.40;99.90;;;;;;4166929;28;20178;-87
2022/09/06 03:59:08;;;;;;;12.00;5.68;;;18.30;99.90;;;;;;4183663;28;20206;-89
2022/09/06 04:01:11;;;;;;;9.27;5.35;;;18.20;99.90;;;;;;4168774;28;20224;-96
2022/09/06 04:03:12;;;;;;;9.75;4.90;;;18.20;99.90;;;;;;4168646;28;20671;-91
2022/09/06 04:05:15;;;;;;;11.00;5.53;;;18.20;99.90;;;;;;4171086;28;20194;-87
2022/09/06 04:07:15;;;;;;;6.90;5.57;;;18.20;99.90;;;;;;4168034;28;20234;-87
2022/09/06 04:09:16;;;;;;;10.30;5.72;;;18.30;99.90;;;;;;4169437;28;20180;-87
2022/09/06 04:11:17;;;;;;;8.25;5.57;;;18.30;99.90;;;;;;4186909;28;20195;-90
2022/09/06 04:13:18;;;;;;;8.10;5.88;;;18.30;99.90;;;;;;4174071;28;20176;-95
2022/09/06 04:15:18;;;;;;;8.20;5.68;;;18.30;99.90;;;;;;4171032;28;20248;-87
2022/09/06 04:17:23;;;;;;;10.85;6.13;;;18.30;99.90;;;;;;4203120;28;20167;-87
2022/09/06 04:19:23;;;;;;;11.57;5.97;;;18.20;99.90;;;;;;4170909;28;20262;-95
2022/09/06 04:21:24;;;;;;;17.95;6.50;;;18.20;99.90;;;;;;4172130;28;20192;-93
2022/09/06 04:23:27;;;;;;;13.98;6.55;;;18.20;99.90;;;;;;4186974;28;20209;-93
2022/09/06 04:25:27;;;;;;;8.32;5.43;;;18.10;99.90;;;;;;4168017;28;20176;-88
2022/09/06 04:27:33;;;;;;;10.00;6.43;;;18.10;99.90;;;;;;4188340;28;20266;-88
2022/09/06 04:29:33;;;;;;;11.23;6.40;;;18.10;99.90;;;;;;4185408;28;20270;-88
2022/09/06 04:31:34;;;;;;;12.32;6.60;;;18.10;99.90;;;;;;4171315;28;20191;-89
2022/09/06 04:33:37;;;;;;;14.05;6.68;;;18.10;99.90;;;;;;4186043;28;20175;-87
2022/09/06 04:35:37;;;;;;;8.18;5.78;;;18.10;99.90;;;;;;4182701;28;20611;-90
2022/09/06 04:37:38;;;;;;;13.35;6.15;;;18.00;99.90;;;;;;4167120;28;20180;-89
2022/09/06 04:39:39;;;;;;;14.57;6.72;;;18.10;99.90;;;;;;4198890;28;20670;-95
2022/09/06 04:41:41;;;;;;;8.60;6.70;;;18.10;99.90;;;;;;4167976;28;20179;-87
2022/09/06 04:43:42;;;;;;;9.02;6.63;;;18.00;99.90;;;;;;4182141;28;20175;-96
2022/09/06 04:45:43;;;;;;;10.63;6.72;;;18.10;99.90;;;;;;4166547;28;20185;-86
2022/09/06 04:47:44;;;;;;;10.73;7.47;;;18.10;99.90;;;;;;4165626;28;20298;-87
2022/09/06 04:49:47;;;;;;;13.68;7.53;;;18.20;99.90;;;;;;4181703;28;20540;-87
2022/09/06 04:51:47;;;;;;;10.10;7.05;;;18.20;99.90;;;;;;4182170;28;20662;-87
2022/09/06 04:53:49;;;;;;;16.90;7.10;;;18.10;99.90;;;;;;4165719;28;20161;-96
2022/09/06 04:55:49;;;;;;;10.48;6.90;;;18.20;99.90;;;;;;4165094;28;20207;-88
2022/09/06 04:57:50;;;;;;;11.77;7.25;;;18.10;99.90;;;;;;4182205;28;20164;-92
2022/09/06 04:59:51;;;;;;;13.75;7.03;;;18.10;99.90;;;;;;4166213;28;20208;-87
2022/09/06 05:01:52;;;;;;;9.07;6.90;;;18.10;99.90;;;;;;4182339;28;20536;-87
2022/09/06 05:03:52;;;;;;;10.63;7.20;;;18.10;99.90;;;;;;4165182;28;20180;-95
2022/09/06 05:06:06;;;;;;;12.70;6.65;;;18.20;99.90;;;;;;4165043;28;20164;-87
2022/09/06 05:08:07;;;;;;;11.23;6.72;;;18.10;99.90;;;;;;4165258;28;20219;-87
2022/09/06 05:10:08;;;;;;;11.43;7.13;;;18.10;99.90;;;;;;4165139;28;20720;-87
2022/09/06 05:12:09;;;;;;;14.35;7.28;;;18.00;99.90;;;;;;4182414;28;20172;-96
2022/09/06 05:14:10;;;;;;;12.20;6.85;;;18.00;99.90;;;;;;4165198;28;20184;-86
2022/09/06 05:16:11;;;;;;;9.93;7.05;;;18.00;99.90;;;;;;4166007;28;20672;-87
2022/09/06 05:18:11;;;;;;;11.77;7.28;;;17.90;99.90;;;;;;4183511;28;20168;-87
2022/09/06 05:20:12;;;;;;;14.23;7.00;;;17.90;99.90;;;;;;4166339;28;20195;-87
2022/09/06 05:22:13;;;;;;;13.43;6.68;;;17.90;99.90;;;;;;4165968;28;20730;-96
2022/09/06 05:24:14;;;;;;;9.63;6.90;;;17.80;99.90;;;;;;4165569;28;20172;-88
2022/09/06 05:26:14;;;;;;;13.82;6.28;;;17.80;99.90;;;;;;4182152;28;20249;-88
2022/09/06 05:28:16;;;;;;;9.52;5.97;;;17.80;99.90;;;;;;4203248;28;20221;-87
2022/09/06 05:30:18;;;;;;;11.45;6.53;;;17.80;99.90;;;;;;4168675;28;20184;-94
2022/09/06 05:32:19;;;;;;;13.18;5.80;;;17.80;99.90;;;;;;4186220;28;20175;-87
2022/09/06 05:34:19;;;;;;;8.90;5.70;;;17.80;99.90;;;;;;4185960;28;20186;-87
2022/09/06 05:36:22;;;;;;;7.75;5.30;;;17.80;99.90;;;;;;4167688;28;20271;-88
2022/09/06 05:38:24;;;;;;;10.50;5.43;;;17.70;99.90;;;;;;4184694;28;20664;-87
2022/09/06 05:40:24;;;;;;;10.70;5.05;;;17.80;99.90;;;;;;4203573;28;20250;-88
2022/09/06 05:42:25;;;;;;;7.15;4.80;;;17.80;99.90;;;;;;4167404;28;20176;-87
2022/09/06 05:44:26;;;;;;;14.55;5.00;;;18.00;99.90;;;;;;4183993;28;20205;-88
2022/09/06 05:46:26;;;;;;;9.65;4.20;;;18.00;99.90;;;;;;4169455;28;20202;-86
2022/09/06 05:48:27;;;;;;;9.00;4.65;;;18.00;99.90;;;;;;4165919;28;20212;-87
2022/09/06 05:50:28;;;;;;;15.30;4.95;;;18.00;99.90;;;;;;4168015;28;20259;-87
2022/09/06 05:52:28;;;;;;;10.02;4.35;;;18.00;99.90;;;;;;4168902;28;20263;-88
2022/09/06 05:54:29;;;;;;;10.90;5.20;;;17.90;99.90;;;;;;4171091;28;20234;-96
2022/09/06 05:56:30;;;;;;;8.68;4.72;;;18.00;99.90;;;;;;4185519;28;20238;-87
2022/09/06 05:58:31;;;;;;;12.25;4.55;;;18.10;99.90;;;;;;4185618;28;20168;-87
2022/09/06 06:00:31;;;;;;;9.07;4.60;;;18.20;99.90;;;;;;4172143;28;20198;-88
2022/09/06 06:02:32;;;;;;;9.45;4.35;;;18.30;99.90;;;;;;4170494;28;20157;-87
2022/09/06 06:04:33;;;;;;;8.15;4.90;;;18.40;99.90;;;;;;4169683;28;20165;-90
2022/09/06 06:06:34;;;;;;;7.28;4.53;;;18.50;99.90;;;;;;4169877;28;20176;-96
2022/09/06 06:08:35;;;;;;;8.45;4.47;;;18.50;99.90;;;;;;4169186;28;20208;-96
2022/09/06 06:10:38;;;;;;;7.93;4.68;;;18.60;99.90;;;;;;4169787;28;20172;-90
2022/09/06 06:12:38;;;;;;;7.30;4.57;;;18.70;99.90;;;;;;4169183;28;20678;-88
2022/09/06 06:14:39;;;;;;;10.55;4.45;;;18.70;99.90;;;;;;4169719;28;20175;-87
2022/09/06 06:16:40;;;;;;;8.25;4.43;;;18.80;99.90;;;;;;4186230;28;20190;-93
2022/09/06 06:18:43;;;;;;;7.60;4.70;;;18.80;99.90;;;;;;4184405;28;20176;-88
2022/09/06 06:20:43;;;;;;;8.05;4.22;;;18.90;99.90;;;;;;4169526;28;20230;-87
2022/09/06 06:22:44;;;;;;;7.97;3.90;;;19.00;99.90;;;;;;4181254;28;20532;-87
2022/09/06 06:24:45;;;;;;;6.78;3.92;;;19.00;99.90;;;;;;4182109;28;20567;-87
2022/09/06 06:26:45;;;;;;;6.78;3.20;;;19.10;99.90;;;;;;4183684;28;20190;-87
2022/09/06 06:28:47;;;;;;;4.78;3.22;;;19.00;99.90;;;;;;4165330;28;20208;-87
2022/09/06 06:30:48;;;;;;;8.80;3.75;;;18.90;99.90;;;;;;4169410;28;20742;-87
2022/09/06 06:32:49;;;;;;;6.38;3.53;;;19.00;99.90;;;;;;4164763;28;20255;-86
2022/09/06 06:34:50;;;;;;;9.30;3.40;;;19.00;99.90;;;;;;4164664;28;20172;-87
2022/09/06 06:36:50;;;;;;;8.00;3.45;;;19.10;99.90;;;;;;4168660;28;20558;-87
2022/09/06 06:38:54;;;;;;;5.40;2.97;;;19.30;99.90;;;;;;4169480;28;20629;-86
2022/09/06 06:40:55;;;;;;;6.25;3.60;;;19.50;99.90;;;;;;4183678;28;20666;-86
2022/09/06 06:42:56;;;;;;;10.73;3.50;;;19.60;99.90;;;;;;4168969;28;20180;-86
2022/09/06 06:44:56;;;;;;;5.30;2.70;;;19.60;99.90;;;;;;4169330;28;20180;-93
2022/09/06 06:47:00;;;;;;;11.82;3.20;;;19.60;99.90;;;;;;4168918;28;20183;-88
2022/09/06 06:49:01;;;;;;;6.55;2.60;;;19.50;99.90;;;;;;4167079;28;20239;-87
2022/09/06 06:51:02;;;;;;;11.13;2.70;;;19.70;99.90;;;;;;4167866;28;20219;-86
2022/09/06 06:53:03;;;;;;;8.80;2.92;;;19.70;99.90;;;;;;4184894;28;20190;-87
2022/09/06 06:55:05;;;;;;;10.75;2.88;;;19.70;99.90;;;;;;4167913;28;20244;-87
2022/09/06 06:57:08;;;;;;;6.20;2.70;;;19.60;99.90;;;;;;4167190;28;20247;-86
2022/09/06 06:59:09;;;;;;;5.53;2.60;;;19.70;99.90;;;;;;4184637;28;20175;-95
2022/09/06 07:01:10;;;;;;;8.68;2.53;;;19.60;99.90;;;;;;4169461;28;20198;-86
2022/09/06 07:03:11;;;;;;;5.65;2.47;;;19.60;99.90;;;;;;4200845;28;20210;-86
2022/09/06 07:05:12;;;;;;;7.47;2.78;;;19.60;99.90;;;;;;4184200;28;20175;-87
2022/09/06 07:07:13;;;;;;;7.43;2.92;;;19.70;99.90;;;;;;4167276;28;20535;-87
2022/09/06 07:09:14;;;;;;;5.35;2.95;;;19.80;99.90;;;;;;4183194;28;20655;-86
2022/09/06 07:11:17;;;;;;;6.03;2.63;;;20.20;99.90;;;;;;4166493;28;20600;-87
2022/09/06 07:13:17;;;;;;;6.47;2.83;;;21.00;99.90;;;;;;4169803;28;20166;-95
2022/09/06 07:15:18;;;;;;;7.13;2.70;;;22.30;99.90;;;;;;4167912;28;20263;-86
2022/09/06 07:17:19;;;;;;;7.28;3.03;;;23.20;99.90;;;;;;4167725;28;20168;-86
2022/09/06 07:19:19;;;;;;;9.52;3.05;;;24.10;99.90;;;;;;4168582;28;20171;-86
2022/09/06 07:21:25;;;;;;;7.22;3.45;;;24.80;99.90;;;;;;4167987;28;20192;-86
2022/09/06 07:23:26;;;;;;;7.88;3.03;;;25.60;99.90;;;;;;4184766;28;20172;-87
2022/09/06 07:25:27;;;;;;;9.63;3.13;;;26.20;99.90;;;;;;4185262;28;20163;-87
2022/09/06 07:27:28;;;;;;;6.32;3.08;;;27.00;99.90;;;;;;4183042;28;20230;-85
2022/09/06 07:29:29;;;;;;;6.38;3.20;;;27.10;99.90;;;;;;4167230;28;20710;-86
2022/09/06 07:31:31;;;;;;;7.57;3.00;;;27.30;99.90;;;;;;4168790;28;20195;-87
2022/09/06 07:33:34;;;;;;;6.97;2.90;;;27.20;99.90;;;;;;4170375;28;20659;-87
2022/09/06 07:35:35;;;;;;;8.63;2.80;;;27.50;99.90;;;;;;4168795;28;20268;-87
2022/09/06 07:37:36;;;;;;;5.40;3.13;;;27.80;99.90;;;;;;4185681;28;20167;-86
2022/09/06 07:39:37;;;;;;;4.07;3.00;;;27.80;99.90;;;;;;4168362;28;20184;-87
2022/09/06 07:41:38;;;;;;;3.55;2.72;;;28.30;99.90;;;;;;4167427;28;20165;-86
2022/09/06 07:43:39;;;;;;;4.65;3.00;;;28.40;99.90;;;;;;4169081;28;20223;-86
2022/09/06 07:45:40;;;;;;;5.35;2.97;;;28.70;99.90;;;;;;4186072;28;20663;-85
2022/09/06 07:47:41;;;;;;;4.43;2.83;;;28.60;99.90;;;;;;4165862;28;20592;-87
2022/09/06 07:49:42;;;;;;;4.38;2.63;;;28.50;99.90;;;;;;4166572;28;20212;-87
2022/09/06 07:51:43;;;;;;;7.28;2.80;;;28.90;99.90;;;;;;4187290;28;20221;-87
2022/09/06 07:53:51;;;;;;;5.70;2.83;;;28.80;99.90;;;;;;4185156;28;20198;-87
2022/09/06 07:55:52;;;;;;;7.45;2.60;;;28.40;99.90;;;;;;4167519;28;20199;-87
2022/09/06 07:57:52;;;;;;;11.07;2.85;;;28.20;99.90;;;;;;4183960;28;20179;-86
2022/09/06 07:59:53;;;;;;;3.78;2.22;;;28.30;99.90;;;;;;4186063;28;20206;-88
2022/09/06 08:01:54;;;;;;;6.28;2.30;;;28.70;99.90;;;;;;4170940;28;20164;-89
2022/09/06 08:04:00;;;;;;;8.85;2.50;;;29.70;99.90;;;;;;4186424;28;20237;-87
2022/09/06 08:06:00;;;;;;;3.58;1.95;;;30.10;99.90;;;;;;4170197;28;20255;-87
2022/09/06 08:08:01;;;;;;;4.70;2.30;;;30.60;99.90;;;;;;4166559;28;20211;-94
2022/09/06 08:10:03;;;;;;;6.47;2.30;;;29.90;99.90;;;;;;4165949;28;20186;-86
2022/09/06 08:12:06;;;;;;;7.78;2.22;;;29.00;99.90;;;;;;4183020;28;20225;-87
2022/09/06 08:14:08;;;;;;;11.38;2.00;;;28.80;99.90;;;;;;4168381;28;20172;-87
2022/09/06 08:16:10;;;;;;;3.17;2.08;;;28.90;99.90;;;;;;4167057;28;20168;-86
2022/09/06 08:18:11;;;;;;;7.75;2.00;;;28.60;99.90;;;;;;4184143;28;20176;-87
2022/09/06 08:20:11;;;;;;;9.85;2.17;;;28.90;99.90;;;;;;4167774;28;20678;-89
2022/09/06 08:22:12;;;;;;;4.07;2.30;;;29.80;99.90;;;;;;4168673;28;20176;-87
2022/09/06 08:24:13;;;;;;;10.52;2.20;;;30.90;99.90;;;;;;4167367;28;20238;-87
2022/09/06 08:26:19;;;;;;;7.30;2.58;;;31.10;99.90;;;;;;4183225;28;20240;-87
2022/09/06 08:28:20;;;;;;;6.10;2.13;;;30.70;99.90;;;;;;4169489;28;20211;-87
2022/09/06 08:30:20;;;;;;;4.60;2.20;;;31.10;99.90;;;;;;4185127;28;20301;-86
2022/09/06 08:32:21;;;;;;;7.93;2.25;;;31.30;99.90;;;;;;4167363;28;20168;-88
2022/09/06 08:34:22;;;;;;;6.07;2.40;;;31.20;99.90;;;;;;4167492;28;20210;-88
2022/09/06 08:36:25;;;;;;;5.63;2.60;;;32.10;99.90;;;;;;4168125;28;20205;-89
2022/09/06 08:38:26;;;;;;;5.85;2.60;;;32.20;99.90;;;;;;4181683;28;20175;-87
2022/09/06 08:40:27;;;;;;;4.13;2.35;;;32.40;99.90;;;;;;4167453;28;20186;-88
2022/09/06 08:42:30;;;;;;;5.72;2.70;;;31.70;99.90;;;;;;4166204;28;20176;-93
2022/09/06 08:44:39;;;;;;;7.80;2.90;;;31.70;99.90;;;;;;4166567;28;20180;-89
2022/09/06 08:47:06;;;;;;;4.13;2.60;;;31.70;99.90;;;;;;4165720;28;20714;-89
2022/09/06 08:49:09;;;;;;;5.53;2.55;;;31.80;99.90;;;;;;4166070;28;20212;-89
2022/09/06 08:51:30;;;;;;;5.78;2.60;;;32.10;99.90;;;;;;4184835;28;20218;-89
2022/09/06 08:53:47;;;;;;;5.72;2.40;;;32.80;99.90;;;;;;4168332;28;20183;-89
2022/09/06 08:55:54;;;;;;;6.20;2.85;;;33.10;99.90;;;;;;4184487;28;20175;-88
2022/09/06 08:58:09;;;;;;;6.00;3.20;;;32.70;99.90;;;;;;4168256;28;20183;-89
2022/09/06 09:00:12;;;;;;;6.72;2.78;;;32.90;99.90;;;;;;4165787;28;20195;-89
2022/09/06 09:02:19;;;;;;;8.32;3.00;;;32.00;99.90;;;;;;4170161;28;20176;-89
2022/09/06 09:04:23;;;;;;;6.80;2.60;;;32.30;99.90;;;;;;4164934;28;20181;-89
2022/09/06 09:06:26;;;;;;;4.93;2.90;;;32.00;99.90;;;;;;4165166;28;20214;-89
2022/09/06 09:08:33;;;;;;;3.63;2.70;;;31.60;99.90;;;;;;4166390;28;20183;-90
2022/09/06 09:10:41;;;;;;;6.18;2.63;;;31.20;99.90;;;;;;4166671;28;20163;-89
2022/09/06 09:12:45;;;;;;;6.72;2.50;;;31.10;99.90;;;;;;4169288;28;20179;-90
2022/09/06 09:14:49;;;;;;;5.85;2.53;;;31.10;99.90;;;;;;4166227;28;20243;-90
2022/09/06 09:16:51;;;;;;;4.53;2.53;;;31.20;99.90;;;;;;4169813;28;20275;-91
2022/09/06 09:18:55;;;;;;;6.80;2.30;;;31.10;99.90;;;;;;4168258;28;20212;-90
2022/09/06 09:20:58;;;;;;;13.63;2.20;;;31.40;99.90;;;;;;4168262;28;20211;-90
2022/09/06 09:22:58;;;;;;;6.05;2.70;;;32.10;99.90;;;;;;4169197;28;20251;-90
2022/09/06 09:25:00;;;;;;;5.70;2.33;;;32.60;99.90;;;;;;4182035;28;20178;-90
2022/09/06 09:27:10;;;;;;;7.18;2.08;;;32.50;99.90;;;;;;4165250;28;20187;-89
2022/09/06 09:29:13;;;;;;;10.70;2.65;;;31.80;99.90;;;;;;4165327;28;20544;-89
2022/09/06 09:31:32;;;;;;;3.95;2.10;;;31.80;99.90;;;;;;4164824;28;20314;-90
2022/09/06 09:33:41;;;;;;;6.35;2.03;;;31.60;99.90;;;;;;4166917;28;20175;-90
2022/09/06 09:35:42;;;;;;;9.13;2.20;;;32.20;99.90;;;;;;4173337;28;20156;-90
2022/09/06 09:37:43;;;;;;;8.88;2.28;;;32.60;99.90;;;;;;4168468;28;20194;-90
2022/09/06 09:39:46;;;;;;;5.47;2.10;;;32.40;99.90;;;;;;4165508;28;20211;-91
2022/09/06 09:41:49;;;;;;;6.82;2.10;;;33.30;99.90;;;;;;4165637;28;20168;-91
2022/09/06 09:44:03;;;;;;;3.25;2.00;;;33.00;99.90;;;;;;4167045;28;20651;-90
2022/09/06 09:46:27;;;;;;;9.30;2.40;;;32.60;99.90;;;;;;4165064;28;20163;-90
2022/09/06 09:48:27;;;;;;;7.20;1.67;;;31.70;99.90;;;;;;4186360;28;20643;-91
2022/09/06 09:50:33;;;;;;;6.30;2.30;;;31.30;99.90;;;;;;4183296;28;20338;-90
2022/09/06 09:52:43;;;;;;;3.78;2.17;;;31.40;99.90;;;;;;4182747;28;20722;-95
2022/09/06 09:54:45;;;;;;;5.35;2.40;;;31.20;99.90;;;;;;4170409;28;20175;-90
2022/09/06 09:56:51;;;;;;;4.63;2.40;;;31.10;99.90;;;;;;4164266;28;20211;-91
2022/09/06 09:58:55;;;;;;;5.68;2.30;;;31.10;99.90;;;;;;4181031;28;20222;-91
2022/09/06 10:01:10;;;;;;;7.85;1.90;;;31.80;99.90;;;;;;4168173;28;20179;-96
2022/09/06 10:03:26;;;;;;;4.80;1.77;;;32.30;99.90;;;;;;4166809;28;20176;-91
2022/09/06 10:05:27;;;;;;;5.53;2.25;;;31.90;99.90;;;;;;4165233;28;20245;-91
2022/09/06 10:07:31;;;;;;;6.30;1.95;;;31.40;99.90;;;;;;4164413;28;20620;-92
2022/09/06 10:09:41;;;;;;;10.07;2.63;;;30.50;99.90;;;;;;4164572;28;20172;-91
2022/09/06 10:11:57;;;;;;;8.55;2.45;;;30.30;99.90;;;;;;4167903;28;20244;-91
2022/09/06 10:14:17;;;;;;;10.45;2.53;;;29.50;99.90;;;;;;4159200;28;20177;-91
2022/09/06 10:16:44;;;;;;;6.95;2.45;;;29.30;99.90;;;;;;4168165;28;20249;-91
2022/09/06 10:18:44;;;;;;;9.80;2.25;;;29.20;99.90;;;;;;4169184;28;20212;-90
2022/09/06 10:21:21;;;;;;;7.22;2.17;;;28.90;99.90;;;;;;4168202;28;20192;-90
2022/09/06 10:23:28;;;;;;;6.35;2.15;;;28.60;99.90;;;;;;4175627;28;20210;-90
2022/09/06 10:25:44;;;;;;;9.15;2.40;;;28.60;99.90;;;;;;4170298;28;20171;-90
2022/09/06 10:28:03;;;;;;;6.97;2.10;;;28.10;99.90;;;;;;4185171;28;20174;-90
2022/09/06 10:30:07;;;;;;;5.10;2.10;;;28.10;99.90;;;;;;4172831;28;20192;-91
2022/09/06 10:32:39;;;;;;;5.43;1.60;;;27.90;99.90;;;;;;4167329;28;20669;-90
2022/09/06 10:35:04;;;;;;;5.15;2.28;;;27.80;99.90;;;;;;4200542;28;20188;-88
2022/09/06 10:37:19;;;;;;;6.15;1.83;;;27.70;99.90;;;;;;4169154;28;20256;-89
2022/09/06 10:39:34;;;;;;;10.63;1.80;;;27.50;99.90;;;;;;4170253;28;20188;-89
2022/09/06 10:41:56;;;;;;;5.25;1.70;;;27.20;99.90;;;;;;4186137;28;20179;-89
2022/09/06 10:44:15;;;;;;;11.23;1.80;;;27.10;99.90;;;;;;4169590;28;20172;-89
2022/09/06 10:46:20;;;;;;;6.03;1.45;;;27.00;99.90;;;;;;4170049;28;20180;-96